Terminal Aerodrome Forecast
Issued by NWS Blacksburg, VA

Current Version | Previous Version | Text Only | Print | Product List | Glossary Off
Versions: 1 2 3 4 5 6 7 8 9 10 11 12 13 14 15 16 17 18 19 20 21 22 23 24 25 26 27 28 29 30 31 32 33 34 35 36 37 38 39 40 41

000
FTUS41 KRNK 031000 AAB
TAFBLF
TAF AMD
KBLF 031000Z 0310/0406 08003KT 3SM BR OVC003
      TEMPO 0310/0312 6SM BR SCT003 OVC010
     FM031200 12004KT 6SM BR OVC008
     FM031600 13005KT P6SM VCSH OVC015=

USA.gov is the U.S. government's official web portal to all federal, state and local government web resources and services.